createdAt,value
2022-09-29T00:00:22.152Z,5.86
2022-09-29T00:01:22.550Z,5.86
2022-09-29T00:02:22.832Z,5.86
2022-09-29T00:03:23.241Z,5.86
2022-09-29T00:04:23.515Z,5.86
2022-09-29T00:05:23.863Z,5.84
2022-09-29T00:06:24.226Z,5.86
2022-09-29T00:07:24.580Z,5.84
2022-09-29T00:08:24.946Z,5.83
2022-09-29T00:09:25.269Z,5.84
2022-09-29T00:10:25.609Z,5.86
2022-09-29T00:11:25.944Z,5.84
2022-09-29T00:12:26.295Z,5.87
2022-09-29T00:13:26.665Z,5.86
2022-09-29T00:14:26.997Z,5.84
2022-09-29T00:15:27.295Z,5.82
2022-09-29T00:16:27.722Z,5.76
2022-09-29T00:17:27.988Z,5.79
2022-09-29T00:18:28.357Z,5.79
2022-09-29T00:19:28.668Z,5.73
2022-09-29T00:20:29.018Z,5.79
2022-09-29T00:21:29.376Z,5.80
2022-09-29T00:22:29.734Z,5.83
2022-09-29T00:23:30.084Z,5.79
2022-09-29T00:24:30.427Z,5.76
2022-09-29T00:25:30.787Z,5.79
2022-09-29T00:26:31.130Z,5.79
2022-09-29T00:27:31.477Z,5.79
2022-09-29T00:28:31.848Z,5.75
2022-09-29T00:29:32.182Z,5.73
2022-09-29T00:30:32.535Z,5.73
2022-09-29T00:31:32.960Z,5.73
2022-09-29T00:32:33.249Z,5.71
2022-09-29T00:33:33.618Z,5.69
2022-09-29T00:34:33.944Z,5.76
2022-09-29T00:35:34.270Z,5.83
2022-09-29T00:36:34.633Z,5.89
2022-09-29T00:37:34.982Z,5.83
2022-09-29T00:38:35.397Z,5.82
2022-09-29T00:39:35.663Z,5.84
2022-09-29T00:40:36.074Z,5.83
2022-09-29T00:41:36.371Z,5.89
2022-09-29T00:42:36.733Z,5.93
2022-09-29T00:43:37.095Z,5.91
2022-09-29T00:44:37.442Z,5.87
2022-09-29T00:45:37.847Z,5.90
2022-09-29T00:46:38.131Z,5.87
2022-09-29T00:47:38.483Z,5.84
2022-09-29T00:48:38.851Z,5.80
2022-09-29T00:49:39.196Z,5.79
2022-09-29T00:50:39.555Z,5.75
2022-09-29T00:51:39.897Z,5.71
2022-09-29T00:52:40.251Z,5.69
2022-09-29T00:53:40.612Z,5.65
2022-09-29T00:54:40.959Z,5.66
2022-09-29T00:55:41.307Z,5.64
2022-09-29T00:56:41.667Z,5.64
2022-09-29T00:57:42.000Z,5.64
2022-09-29T00:58:42.371Z,5.62
2022-09-29T00:59:42.689Z,5.64
2022-09-29T01:00:43.163Z,5.62
2022-09-29T01:01:43.366Z,5.68
2022-09-29T01:02:43.716Z,5.65
2022-09-29T01:03:44.089Z,5.68
2022-09-29T01:04:44.429Z,5.69
2022-09-29T01:05:44.777Z,5.72
2022-09-29T01:06:45.140Z,5.73
2022-09-29T01:07:45.441Z,5.72
2022-09-29T01:08:45.829Z,5.75
2022-09-29T01:09:46.133Z,5.79
2022-09-29T01:10:46.488Z,5.76
2022-09-29T01:11:46.839Z,5.80
2022-09-29T01:12:47.192Z,5.75
2022-09-29T01:13:47.558Z,5.76
2022-09-29T01:14:47.904Z,5.76
2022-09-29T01:15:48.256Z,5.79
2022-09-29T01:16:48.606Z,5.80
2022-09-29T01:17:48.963Z,5.79
2022-09-29T01:18:49.320Z,5.83
2022-09-29T01:19:49.661Z,5.80
2022-09-29T01:20:50.009Z,5.82
2022-09-29T01:21:50.357Z,5.83
2022-09-29T01:22:50.716Z,5.83
2022-09-29T01:23:51.073Z,5.80
2022-09-29T01:24:51.414Z,5.79
2022-09-29T01:25:51.765Z,5.75
2022-09-29T01:26:52.129Z,5.69
2022-09-29T01:27:52.490Z,5.68
2022-09-29T01:28:52.851Z,5.64
2022-09-29T01:29:53.193Z,5.61
2022-09-29T01:30:53.523Z,5.61
2022-09-29T01:31:53.930Z,5.61
2022-09-29T01:32:54.212Z,5.57
2022-09-29T01:33:54.577Z,5.57
2022-09-29T01:34:54.934Z,5.54
2022-09-29T01:36:01.276Z,5.56
2022-09-29T01:36:58.249Z,5.56
2022-09-29T01:37:55.959Z,5.54
2022-09-29T01:38:56.438Z,5.56
2022-09-29T01:39:56.673Z,5.53
2022-09-29T01:40:57.092Z,5.54
2022-09-29T01:41:57.346Z,5.56
2022-09-29T01:42:57.695Z,5.57
2022-09-29T01:43:58.068Z,5.59
2022-09-29T01:44:58.396Z,5.61
2022-09-29T01:45:58.805Z,5.57
2022-09-29T01:46:59.108Z,5.72
2022-09-29T01:47:59.410Z,5.75
2022-09-29T01:48:59.805Z,5.75
2022-09-29T01:50:00.149Z,5.72
2022-09-29T01:51:00.470Z,5.72
2022-09-29T01:52:00.820Z,5.83
2022-09-29T01:53:01.177Z,5.83
2022-09-29T01:54:01.536Z,5.75
2022-09-29T01:55:01.882Z,5.71
2022-09-29T01:56:02.231Z,5.66
2022-09-29T01:57:02.624Z,5.62
2022-09-29T01:58:02.935Z,5.61
2022-09-29T01:59:03.316Z,5.56
2022-09-29T02:00:03.610Z,5.53
2022-09-29T02:01:04.019Z,5.50
2022-09-29T02:02:04.390Z,5.48
2022-09-29T02:03:04.660Z,5.48
2022-09-29T02:04:05.038Z,5.51
2022-09-29T02:05:05.337Z,5.53
2022-09-29T02:06:05.691Z,5.53
2022-09-29T02:07:06.048Z,5.53
2022-09-29T02:08:06.395Z,5.53
2022-09-29T02:09:06.767Z,5.53
2022-09-29T02:10:07.078Z,5.54
2022-09-29T02:11:07.431Z,5.56
2022-09-29T02:12:07.783Z,5.59
2022-09-29T02:13:08.136Z,5.56
2022-09-29T02:14:08.499Z,5.57
2022-09-29T02:15:08.841Z,5.54
2022-09-29T02:16:09.230Z,5.54
2022-09-29T02:17:09.548Z,5.57
2022-09-29T02:18:09.886Z,5.56
2022-09-29T02:19:10.260Z,5.54
2022-09-29T02:20:10.566Z,5.53
2022-09-29T02:21:10.913Z,5.48
2022-09-29T02:22:11.265Z,5.48
2022-09-29T02:23:11.621Z,5.46
2022-09-29T02:24:12.014Z,5.47
2022-09-29T02:25:12.321Z,5.48
2022-09-29T02:26:12.665Z,5.48
2022-09-29T02:27:13.049Z,5.51
2022-09-29T02:28:13.393Z,5.47
2022-09-29T02:29:13.733Z,5.48
2022-09-29T02:30:14.064Z,5.48
2022-09-29T02:31:14.454Z,5.51
2022-09-29T02:32:14.753Z,5.48
2022-09-29T02:33:15.114Z,5.53
2022-09-29T02:34:15.534Z,5.50
2022-09-29T02:35:15.819Z,5.50
2022-09-29T02:36:16.172Z,5.47
2022-09-29T02:37:16.514Z,5.46
2022-09-29T02:38:16.858Z,5.44
2022-09-29T02:39:17.281Z,5.47
2022-09-29T02:40:17.697Z,5.47
2022-09-29T02:41:17.911Z,5.48
2022-09-29T02:42:18.246Z,5.51
2022-09-29T02:43:18.599Z,5.53
2022-09-29T02:44:19.078Z,5.54
2022-09-29T02:45:19.284Z,5.54
2022-09-29T02:46:19.670Z,5.54
2022-09-29T02:47:21.416Z,5.56
2022-09-29T02:48:20.324Z,5.57
2022-09-29T02:49:20.702Z,5.69
2022-09-29T02:50:21.034Z,5.69
2022-09-29T02:51:21.384Z,5.66
2022-09-29T02:52:21.739Z,5.62
2022-09-29T02:53:22.085Z,5.64
2022-09-29T02:54:22.445Z,5.64
2022-09-29T02:55:22.789Z,5.62
2022-09-29T02:56:23.142Z,5.64
2022-09-29T02:57:23.496Z,5.65
2022-09-29T02:58:24.883Z,5.66
2022-09-29T02:59:24.213Z,5.66
2022-09-29T03:00:24.519Z,5.62
2022-09-29T03:01:24.956Z,5.59
2022-09-29T03:02:25.781Z,5.53
2022-09-29T03:03:25.651Z,5.50
2022-09-29T03:04:25.954Z,5.48
2022-09-29T03:05:26.260Z,5.48
2022-09-29T03:06:27.887Z,5.56
2022-09-29T03:07:26.960Z,5.54
2022-09-29T03:08:27.309Z,5.51
2022-09-29T03:09:27.685Z,5.47
2022-09-29T03:10:30.226Z,5.46
2022-09-29T03:11:28.337Z,5.43
2022-09-29T03:12:29.994Z,5.41
2022-09-29T03:13:29.027Z,5.38
2022-09-29T03:14:29.393Z,5.38
2022-09-29T03:15:29.741Z,5.43
2022-09-29T03:16:30.133Z,5.43
2022-09-29T03:17:30.455Z,5.39
2022-09-29T03:18:30.817Z,5.39
2022-09-29T03:19:31.176Z,5.38
2022-09-29T03:20:31.513Z,5.36
2022-09-29T03:21:31.871Z,5.32
2022-09-29T03:22:32.244Z,5.28
2022-09-29T03:23:32.547Z,5.23
2022-09-29T03:24:32.927Z,5.21
2022-09-29T03:25:33.237Z,5.20
2022-09-29T03:26:33.587Z,5.15
2022-09-29T03:27:33.935Z,5.14
2022-09-29T03:28:34.293Z,5.14
2022-09-29T03:29:34.660Z,5.15
2022-09-29T03:30:34.965Z,5.14
2022-09-29T03:31:35.363Z,5.14
2022-09-29T03:32:35.672Z,5.17
2022-09-29T03:33:36.028Z,5.21
2022-09-29T03:34:36.396Z,5.20
2022-09-29T03:35:36.733Z,5.20
2022-09-29T03:36:37.095Z,5.21
2022-09-29T03:37:38.924Z,5.20
2022-09-29T03:38:37.796Z,5.18
2022-09-29T03:39:38.117Z,5.17
2022-09-29T03:40:38.526Z,5.17
2022-09-29T03:41:38.799Z,5.18
2022-09-29T03:42:39.143Z,5.20
2022-09-29T03:43:39.485Z,5.17
2022-09-29T03:44:39.856Z,5.18
2022-09-29T03:45:40.236Z,5.20
2022-09-29T03:46:40.525Z,5.20
2022-09-29T03:47:40.867Z,5.30
2022-09-29T03:48:41.232Z,5.43
2022-09-29T03:49:41.590Z,5.43
2022-09-29T03:50:41.933Z,5.39
2022-09-29T03:51:42.285Z,5.39
2022-09-29T03:52:42.639Z,5.57
2022-09-29T03:53:42.989Z,5.54
2022-09-29T03:54:43.378Z,5.51
2022-09-29T03:55:43.681Z,5.47
2022-09-29T03:56:44.036Z,5.44
2022-09-29T03:57:44.387Z,5.46
2022-09-29T03:58:44.733Z,5.43
2022-09-29T03:59:46.054Z,5.43
2022-09-29T04:00:45.473Z,5.46
2022-09-29T04:01:45.797Z,5.59
2022-09-29T04:02:46.120Z,5.59
2022-09-29T04:03:46.472Z,5.54
2022-09-29T04:04:46.838Z,5.61
2022-09-29T04:05:47.173Z,5.59
2022-09-29T04:06:47.528Z,5.57
2022-09-29T04:07:47.895Z,5.56
2022-09-29T04:08:48.240Z,5.48
2022-09-29T04:09:48.609Z,5.44
2022-09-29T04:10:48.914Z,5.47
2022-09-29T04:11:49.268Z,5.43
2022-09-29T04:12:49.613Z,5.44
2022-09-29T04:13:49.974Z,5.44
2022-09-29T04:14:50.345Z,5.53
2022-09-29T04:15:50.646Z,5.56
2022-09-29T04:16:51.003Z,5.56
2022-09-29T04:17:51.346Z,5.56
2022-09-29T04:18:51.713Z,5.56
2022-09-29T04:19:52.075Z,5.59
2022-09-29T04:20:52.390Z,5.57
2022-09-29T04:21:52.740Z,5.54
2022-09-29T04:22:53.087Z,5.53
2022-09-29T04:23:53.447Z,5.50
2022-09-29T04:24:54.432Z,5.51
2022-09-29T04:25:54.138Z,5.50
2022-09-29T04:26:54.492Z,5.50
2022-09-29T04:27:55.429Z,5.50
2022-09-29T04:28:55.204Z,5.51
2022-09-29T04:29:56.131Z,5.51
2022-09-29T04:30:55.903Z,5.53
2022-09-29T04:31:56.335Z,5.56
2022-09-29T04:32:56.570Z,5.53
2022-09-29T04:33:56.941Z,5.51
2022-09-29T04:34:57.273Z,5.50
2022-09-29T04:35:57.609Z,5.48
2022-09-29T04:36:57.974Z,5.46
2022-09-29T04:37:58.332Z,5.46
2022-09-29T04:38:58.664Z,5.46
2022-09-29T04:39:59.081Z,5.43
2022-09-29T04:40:59.427Z,5.43
2022-09-29T04:41:59.697Z,5.41
2022-09-29T04:43:00.035Z,5.38
2022-09-29T04:44:00.375Z,5.36
2022-09-29T04:45:02.000Z,5.33
2022-09-29T04:46:00.768Z,5.32
2022-09-29T04:47:01.026Z,5.32
2022-09-29T04:48:01.303Z,5.32
2022-09-29T04:49:01.565Z,5.30
2022-09-29T04:50:01.876Z,5.28
2022-09-29T04:51:02.123Z,5.28
2022-09-29T04:52:02.417Z,5.28
2022-09-29T04:53:02.662Z,5.26
2022-09-29T04:54:02.946Z,5.26
2022-09-29T04:55:03.262Z,5.23
2022-09-29T04:56:03.494Z,5.23
2022-09-29T04:57:03.787Z,5.21
2022-09-29T04:58:04.083Z,5.23
2022-09-29T04:59:04.363Z,5.23
2022-09-29T05:00:04.627Z,5.25
2022-09-29T05:01:04.917Z,5.25
2022-09-29T05:02:05.230Z,5.23
2022-09-29T05:03:05.484Z,5.26
2022-09-29T05:04:05.752Z,5.25
2022-09-29T05:05:06.036Z,5.23
2022-09-29T05:06:06.304Z,5.21
2022-09-29T05:07:06.473Z,5.21
2022-09-29T05:08:06.740Z,5.20
2022-09-29T05:09:07.043Z,5.21
2022-09-29T05:10:07.356Z,5.25
2022-09-29T05:11:07.632Z,5.26
2022-09-29T05:12:07.896Z,5.25
2022-09-29T05:13:08.198Z,5.25
2022-09-29T05:14:08.468Z,5.23
2022-09-29T05:15:08.754Z,5.23
2022-09-29T05:16:09.078Z,5.23
2022-09-29T05:17:09.181Z,5.23
2022-09-29T05:18:09.474Z,5.21
2022-09-29T05:19:09.778Z,5.18
2022-09-29T05:20:10.099Z,5.15
2022-09-29T05:21:27.142Z,5.17
2022-09-29T05:22:10.437Z,5.12
2022-09-29T05:23:10.730Z,5.11
2022-09-29T05:24:10.895Z,5.12
2022-09-29T05:25:11.236Z,5.11
2022-09-29T05:26:11.376Z,5.11
2022-09-29T05:27:11.546Z,5.11
2022-09-29T05:28:11.735Z,5.11
2022-09-29T05:29:11.933Z,5.08
2022-09-29T05:30:12.084Z,5.10
2022-09-29T05:31:12.287Z,5.08
2022-09-29T05:32:12.417Z,5.10
2022-09-29T05:33:12.707Z,5.10
2022-09-29T05:34:12.876Z,5.11
2022-09-29T05:35:13.078Z,5.11
2022-09-29T05:36:13.231Z,5.11
2022-09-29T05:37:13.419Z,5.12
2022-09-29T05:38:13.701Z,5.14
2022-09-29T05:39:13.991Z,5.14
2022-09-29T05:40:14.328Z,5.15
2022-09-29T05:41:14.478Z,5.15
2022-09-29T05:42:14.642Z,5.17
2022-09-29T05:43:14.826Z,5.18
2022-09-29T05:44:15.018Z,5.20
2022-09-29T05:45:15.221Z,5.18
2022-09-29T05:46:15.537Z,5.21
2022-09-29T05:47:15.687Z,5.23
2022-09-29T05:48:15.957Z,5.25
2022-09-29T05:49:16.240Z,5.28
2022-09-29T05:50:16.550Z,5.28
2022-09-29T05:51:22.433Z,5.28
2022-09-29T05:52:17.018Z,5.29
2022-09-29T05:53:17.184Z,5.32
2022-09-29T05:54:17.329Z,5.36
2022-09-29T05:55:17.654Z,5.35
2022-09-29T05:56:17.826Z,5.36
2022-09-29T05:57:18.010Z,5.35
2022-09-29T05:58:18.198Z,5.33
2022-09-29T05:59:18.364Z,5.38
2022-09-29T06:00:18.549Z,5.39
2022-09-29T06:01:18.763Z,5.41
2022-09-29T06:02:18.986Z,5.41
2022-09-29T06:03:19.056Z,5.47
2022-09-29T06:04:19.218Z,5.48
2022-09-29T06:05:19.548Z,5.50
2022-09-29T06:06:19.715Z,5.51
2022-09-29T06:07:19.886Z,5.53
2022-09-29T06:08:20.044Z,5.54
2022-09-29T06:09:20.344Z,5.57
2022-09-29T06:10:20.398Z,5.57
2022-09-29T06:11:20.566Z,5.54
2022-09-29T06:12:21.886Z,5.59
2022-09-29T06:13:20.916Z,5.61
2022-09-29T06:14:21.127Z,5.61
2022-09-29T06:15:21.303Z,5.59
2022-09-29T06:16:21.514Z,5.59
2022-09-29T06:17:21.634Z,5.59
2022-09-29T06:18:21.831Z,5.64
2022-09-29T06:19:21.994Z,5.66
2022-09-29T06:20:22.175Z,5.71
2022-09-29T06:21:22.343Z,5.75
2022-09-29T06:22:22.492Z,5.79
2022-09-29T06:23:22.680Z,5.80
2022-09-29T06:24:22.843Z,5.86
2022-09-29T06:25:23.051Z,5.89
2022-09-29T06:26:24.400Z,5.91
2022-09-29T06:27:23.409Z,5.91
2022-09-29T06:28:23.582Z,5.97
2022-09-29T06:29:23.748Z,6.02
2022-09-29T06:30:23.937Z,6.05
2022-09-29T06:31:24.224Z,6.07
2022-09-29T06:32:24.385Z,6.09
2022-09-29T06:33:24.719Z,6.08
2022-09-29T06:34:24.977Z,6.04
2022-09-29T06:35:25.180Z,6.08
2022-09-29T06:36:25.364Z,6.09
2022-09-29T06:37:25.533Z,6.12
2022-09-29T06:38:25.684Z,6.19
2022-09-29T06:39:25.883Z,6.26
2022-09-29T06:40:26.263Z,6.30
2022-09-29T06:41:26.243Z,6.35
2022-09-29T06:42:26.393Z,6.35
2022-09-29T06:43:26.560Z,6.39
2022-09-29T06:44:26.717Z,6.45
2022-09-29T06:45:27.048Z,6.44
2022-09-29T06:46:27.209Z,6.46
2022-09-29T06:47:27.401Z,6.51
2022-09-29T06:48:27.560Z,6.54
2022-09-29T06:49:27.752Z,6.56
2022-09-29T06:50:27.951Z,6.60
2022-09-29T06:51:38.452Z,6.56
2022-09-29T06:52:30.104Z,6.56
2022-09-29T06:53:35.734Z,6.56
2022-09-29T06:54:28.652Z,6.51
2022-09-29T06:55:28.861Z,6.54
2022-09-29T06:56:29.011Z,6.56
2022-09-29T06:57:29.315Z,6.60
2022-09-29T06:58:29.618Z,6.67
2022-09-29T06:59:29.920Z,6.75
2022-09-29T07:00:30.124Z,6.75
2022-09-29T07:01:30.337Z,6.78
2022-09-29T07:02:30.496Z,6.78
2022-09-29T07:03:30.624Z,6.77
2022-09-29T07:04:30.811Z,6.67
2022-09-29T07:05:30.991Z,6.70
2022-09-29T07:06:31.160Z,6.67
2022-09-29T07:07:31.320Z,6.62
2022-09-29T07:08:31.613Z,6.67
2022-09-29T07:09:31.912Z,6.70
2022-09-29T07:10:32.235Z,6.79
2022-09-29T07:11:32.391Z,6.79
2022-09-29T07:12:32.568Z,6.84
2022-09-29T07:13:32.774Z,6.88
2022-09-29T07:14:32.938Z,7.00
2022-09-29T07:15:33.140Z,6.99
2022-09-29T07:16:33.372Z,7.03
2022-09-29T07:17:33.451Z,7.07
2022-09-29T07:18:33.764Z,7.15
2022-09-29T07:19:33.922Z,7.15
2022-09-29T07:20:34.125Z,7.06
2022-09-29T07:21:34.274Z,7.06
2022-09-29T07:22:34.457Z,7.06
2022-09-29T07:23:34.626Z,7.11
2022-09-29T07:24:34.799Z,7.17
2022-09-29T07:25:51.139Z,7.18
2022-09-29T07:26:35.132Z,7.13
2022-09-29T07:27:35.332Z,7.20
2022-09-29T07:28:35.471Z,7.14
2022-09-29T07:29:35.628Z,7.23
2022-09-29T07:30:40.553Z,7.25
2022-09-29T07:31:49.187Z,7.21
2022-09-29T07:32:36.252Z,7.21
2022-09-29T07:33:39.205Z,7.18
2022-09-29T07:34:36.537Z,7.14
2022-09-29T07:35:39.979Z,7.18
2022-09-29T07:36:43.021Z,7.15
2022-09-29T07:37:37.188Z,7.21
2022-09-29T07:38:37.384Z,7.20
2022-09-29T07:39:37.556Z,7.13
2022-09-29T07:40:38.023Z,7.17
2022-09-29T07:41:38.054Z,7.21
2022-09-29T07:42:38.357Z,7.24
2022-09-29T07:43:38.516Z,7.31
2022-09-29T07:44:38.682Z,7.42
2022-09-29T07:45:39.080Z,7.50
2022-09-29T07:46:39.142Z,7.54
2022-09-29T07:47:39.312Z,7.60
2022-09-29T07:48:39.618Z,7.66
2022-09-29T07:49:39.780Z,7.66
2022-09-29T07:50:39.965Z,7.72
2022-09-29T07:51:40.127Z,7.75
2022-09-29T07:52:40.319Z,7.82
2022-09-29T07:53:40.481Z,7.80
2022-09-29T07:54:40.788Z,7.85
2022-09-29T07:55:40.960Z,7.93
2022-09-29T07:56:41.139Z,7.93
2022-09-29T07:57:41.298Z,8.00
2022-09-29T07:58:41.589Z,7.94
2022-09-29T07:59:48.440Z,7.94
2022-09-29T08:00:42.048Z,7.83
2022-09-29T08:01:42.139Z,7.90
2022-09-29T08:02:42.370Z,7.88
2022-09-29T08:03:42.487Z,7.88
2022-09-29T08:04:42.662Z,7.93
2022-09-29T08:05:42.854Z,8.01
2022-09-29T08:06:43.013Z,8.06
2022-09-29T08:07:43.315Z,8.09
2022-09-29T08:08:56.296Z,8.13
2022-09-29T08:09:43.819Z,8.13
2022-09-29T08:10:51.686Z,8.00
2022-09-29T08:11:44.306Z,7.90
2022-09-29T08:12:44.707Z,7.94
2022-09-29T08:13:44.624Z,8.03
2022-09-29T08:14:44.925Z,8.06
2022-09-29T08:15:45.105Z,8.20
2022-09-29T08:16:45.351Z,8.26
2022-09-29T08:17:45.411Z,8.20
2022-09-29T08:18:45.726Z,8.24
2022-09-29T08:19:46.012Z,8.31
2022-09-29T08:20:46.216Z,8.44
2022-09-29T08:21:46.374Z,8.49
2022-09-29T08:22:46.558Z,8.42
2022-09-29T08:23:46.714Z,8.51
2022-09-29T08:24:46.916Z,8.45
2022-09-29T08:25:58.429Z,8.45
2022-09-29T08:26:47.393Z,8.55
2022-09-29T08:27:54.419Z,8.49
2022-09-29T08:28:52.673Z,8.61
2022-09-29T08:29:47.961Z,8.56
2022-09-29T08:30:48.154Z,8.51
2022-09-29T08:31:48.407Z,8.51
2022-09-29T08:32:48.623Z,8.66
2022-09-29T08:33:48.787Z,8.66
2022-09-29T08:34:48.948Z,8.82
2022-09-29T08:35:49.143Z,8.82
2022-09-29T08:36:49.317Z,8.71
2022-09-29T08:37:49.473Z,8.81
2022-09-29T08:38:49.670Z,8.91
2022-09-29T08:39:49.831Z,9.13
2022-09-29T08:40:50.096Z,9.08
2022-09-29T08:41:50.302Z,9.22
2022-09-29T08:42:50.479Z,9.25
2022-09-29T08:43:50.630Z,9.32
2022-09-29T08:44:50.804Z,9.26
2022-09-29T08:45:59.916Z,9.23
2022-09-29T08:47:01.849Z,9.25
2022-09-29T08:47:51.517Z,9.34
2022-09-29T08:48:58.011Z,9.41
2022-09-29T08:49:51.945Z,9.40
2022-09-29T08:50:52.126Z,9.47
2022-09-29T08:51:52.287Z,9.51
2022-09-29T08:52:52.958Z,9.65
2022-09-29T08:54:01.461Z,9.74
2022-09-29T08:54:52.990Z,9.86
2022-09-29T08:55:53.012Z,9.82
2022-09-29T08:56:53.205Z,9.80
2022-09-29T08:57:53.359Z,9.82
2022-09-29T08:58:53.564Z,9.79
2022-09-29T08:59:53.726Z,9.89
2022-09-29T09:00:53.984Z,9.74
2022-09-29T09:01:54.168Z,9.77
2022-09-29T09:02:56.761Z,9.86
2022-09-29T09:03:54.450Z,9.95
2022-09-29T09:04:54.628Z,10.01
2022-09-29T09:05:54.837Z,10.13
2022-09-29T09:06:55.024Z,9.84
2022-09-29T09:07:55.205Z,9.77
2022-09-29T09:08:55.509Z,9.89
2022-09-29T09:09:55.702Z,9.91
2022-09-29T09:10:55.877Z,10.10
2022-09-29T09:11:56.042Z,10.10
2022-09-29T09:12:56.257Z,9.98
2022-09-29T09:13:56.445Z,10.02
2022-09-29T09:14:56.629Z,9.89
2022-09-29T09:15:56.801Z,9.98
2022-09-29T09:16:57.045Z,10.07
2022-09-29T09:17:57.198Z,10.20
2022-09-29T09:19:57.564Z,10.59
2022-09-29T09:20:57.786Z,10.76
2022-09-29T09:21:57.945Z,10.89
2022-09-29T09:22:58.149Z,10.30
2022-09-29T09:24:00.682Z,10.20
2022-09-29T09:24:58.526Z,10.12
2022-09-29T09:25:58.718Z,10.12
2022-09-29T09:26:58.868Z,10.17
2022-09-29T09:27:59.068Z,10.19
2022-09-29T09:28:59.271Z,10.07
2022-09-29T09:29:59.466Z,10.07
2022-09-29T09:30:59.743Z,10.09
2022-09-29T09:31:59.943Z,10.22
2022-09-29T09:33:00.043Z,10.46
2022-09-29T09:34:15.429Z,10.35
2022-09-29T09:35:11.861Z,10.46
2022-09-29T09:36:00.641Z,10.53
2022-09-29T09:37:07.995Z,10.48
2022-09-29T09:38:00.980Z,10.42
2022-09-29T09:39:01.186Z,10.59
2022-09-29T09:40:01.393Z,10.60
2022-09-29T09:41:01.647Z,10.78
2022-09-29T09:42:01.784Z,10.90
2022-09-29T09:43:01.999Z,10.71
2022-09-29T09:44:02.162Z,10.79
2022-09-29T09:45:02.369Z,10.93
2022-09-29T09:46:02.673Z,10.89
2022-09-29T09:47:02.758Z,10.99
2022-09-29T09:48:02.939Z,11.26
2022-09-29T09:49:03.112Z,11.48
2022-09-29T09:50:03.319Z,11.69
2022-09-29T09:51:03.546Z,11.66
2022-09-29T09:52:03.815Z,11.66
2022-09-29T09:53:03.924Z,11.55
2022-09-29T09:54:04.117Z,11.55
2022-09-29T09:55:04.300Z,11.57
2022-09-29T09:56:04.518Z,11.27
2022-09-29T09:57:04.721Z,11.45
2022-09-29T09:58:04.928Z,11.60
2022-09-29T09:59:05.138Z,11.78
2022-09-29T10:00:05.342Z,11.77
2022-09-29T10:01:05.613Z,11.95
2022-09-29T10:02:05.782Z,12.12
2022-09-29T10:03:05.915Z,12.22
2022-09-29T10:04:06.106Z,12.32
2022-09-29T10:05:09.432Z,12.39
2022-09-29T10:06:06.502Z,12.46
2022-09-29T10:07:06.685Z,12.43
2022-09-29T10:08:06.893Z,12.28
2022-09-29T10:09:07.179Z,12.21
2022-09-29T10:10:07.288Z,11.68
2022-09-29T10:11:07.517Z,11.78
2022-09-29T10:12:07.696Z,11.80
2022-09-29T10:13:07.907Z,11.86
2022-09-29T10:14:08.101Z,11.86
2022-09-29T10:15:08.314Z,11.65
2022-09-29T10:16:08.601Z,11.66
2022-09-29T10:17:08.700Z,11.77
2022-09-29T10:18:08.890Z,11.78
2022-09-29T10:19:09.096Z,11.78
2022-09-29T10:20:09.320Z,11.72
2022-09-29T10:21:09.537Z,11.86
2022-09-29T10:22:09.718Z,11.91
2022-09-29T10:23:09.884Z,11.88
2022-09-29T10:24:10.088Z,11.95
2022-09-29T10:25:10.283Z,12.02
2022-09-29T10:26:10.516Z,12.02
2022-09-29T10:27:10.676Z,12.06
2022-09-29T10:28:10.870Z,12.15
2022-09-29T10:29:11.065Z,12.17
2022-09-29T10:30:11.257Z,12.09
2022-09-29T10:31:11.624Z,12.12
2022-09-29T10:32:11.640Z,11.94
2022-09-29T10:33:11.849Z,11.84
2022-09-29T10:34:12.035Z,11.87
2022-09-29T10:35:12.258Z,11.60
2022-09-29T10:36:12.453Z,11.77
2022-09-29T10:37:12.636Z,11.83
2022-09-29T10:38:12.827Z,11.84
2022-09-29T10:39:13.018Z,11.83
2022-09-29T10:40:13.208Z,12.00
2022-09-29T10:41:13.448Z,12.06
2022-09-29T10:42:13.563Z,12.07
2022-09-29T10:43:13.776Z,11.97
2022-09-29T10:44:13.953Z,11.88
2022-09-29T10:45:14.191Z,11.91
2022-09-29T10:46:14.405Z,11.84
2022-09-29T10:47:14.547Z,11.84
2022-09-29T10:48:14.737Z,11.88
2022-09-29T10:49:14.936Z,11.88
2022-09-29T10:50:15.130Z,12.00
2022-09-29T10:51:15.344Z,11.75
2022-09-29T10:52:15.502Z,11.70
2022-09-29T10:53:15.702Z,11.72
2022-09-29T10:54:15.905Z,11.73
2022-09-29T10:55:16.095Z,11.70
2022-09-29T10:56:16.295Z,11.77
2022-09-29T10:57:16.530Z,11.70
2022-09-29T10:58:31.506Z,11.75
2022-09-29T10:59:16.855Z,11.90
2022-09-29T11:00:17.055Z,11.90
2022-09-29T11:01:17.428Z,11.86
2022-09-29T11:02:17.491Z,11.63
2022-09-29T11:03:17.623Z,11.68
2022-09-29T11:04:17.832Z,11.73
2022-09-29T11:05:17.997Z,11.77
2022-09-29T11:06:18.191Z,11.83
2022-09-29T11:07:18.375Z,11.73
2022-09-29T11:08:18.578Z,11.81
2022-09-29T11:09:18.972Z,11.97
2022-09-29T11:10:18.957Z,12.00
2022-09-29T11:11:19.153Z,12.00
2022-09-29T11:12:19.337Z,12.06
2022-09-29T11:13:19.547Z,12.13
2022-09-29T11:14:19.726Z,12.09
2022-09-29T11:15:19.938Z,11.91
2022-09-29T11:16:20.193Z,11.90
2022-09-29T11:17:20.297Z,12.00
2022-09-29T11:18:20.527Z,12.09
2022-09-29T11:19:20.953Z,12.12
2022-09-29T11:20:20.872Z,12.20
2022-09-29T11:21:21.080Z,12.21
2022-09-29T11:22:21.244Z,12.18
2022-09-29T11:23:21.407Z,12.04
2022-09-29T11:24:21.636Z,12.04
2022-09-29T11:25:21.782Z,11.91
2022-09-29T11:26:21.988Z,11.87
2022-09-29T11:27:22.133Z,12.02
2022-09-29T11:28:22.331Z,12.15
2022-09-29T11:29:22.508Z,12.20
2022-09-29T11:30:22.715Z,12.10
2022-09-29T11:31:22.892Z,12.20
2022-09-29T11:32:23.073Z,12.24
2022-09-29T11:33:24.048Z,12.24
2022-09-29T11:34:23.501Z,12.27
2022-09-29T11:35:23.631Z,12.24
2022-09-29T11:36:23.835Z,12.18
2022-09-29T11:37:24.057Z,12.27
2022-09-29T11:38:24.214Z,12.21
2022-09-29T11:39:24.405Z,12.20
2022-09-29T11:40:24.589Z,12.18
2022-09-29T11:41:24.823Z,12.21
2022-09-29T11:42:26.121Z,12.31
2022-09-29T11:43:25.178Z,12.36
2022-09-29T11:44:25.369Z,12.40
2022-09-29T11:45:25.561Z,12.49
2022-09-29T11:46:25.830Z,12.55
2022-09-29T11:47:25.947Z,12.62
2022-09-29T11:48:28.622Z,12.58
2022-09-29T11:49:26.322Z,12.45
2022-09-29T11:50:26.514Z,12.49
2022-09-29T11:51:26.708Z,12.40
2022-09-29T11:52:26.895Z,12.42
2022-09-29T11:53:27.082Z,12.39
2022-09-29T11:54:27.271Z,12.40
2022-09-29T11:55:27.475Z,12.40
2022-09-29T11:56:27.678Z,12.31
2022-09-29T11:57:27.863Z,12.31
2022-09-29T11:58:28.065Z,12.37
2022-09-29T11:59:28.249Z,12.29
2022-09-29T12:00:28.459Z,12.32
2022-09-29T12:01:28.658Z,12.17
2022-09-29T12:02:28.880Z,12.21
2022-09-29T12:03:29.037Z,12.25
2022-09-29T12:04:29.202Z,12.37
2022-09-29T12:05:29.381Z,12.45
2022-09-29T12:06:29.610Z,12.43
2022-09-29T12:07:29.752Z,12.53
2022-09-29T12:08:29.941Z,12.53
2022-09-29T12:09:30.144Z,12.50
2022-09-29T12:10:30.334Z,12.47
2022-09-29T12:11:59.943Z,12.42
2022-09-29T12:12:30.719Z,12.42
2022-09-29T12:13:30.899Z,12.43
2022-09-29T12:14:31.162Z,12.31
2022-09-29T12:15:31.293Z,12.32
2022-09-29T12:16:31.551Z,12.40
2022-09-29T12:17:31.693Z,12.39
2022-09-29T12:18:31.851Z,12.37
2022-09-29T12:19:32.029Z,12.35
2022-09-29T12:20:32.245Z,12.43
2022-09-29T12:21:32.440Z,12.31
2022-09-29T12:22:34.627Z,12.37
2022-09-29T12:23:32.810Z,12.40
2022-09-29T12:24:33.011Z,12.40
2022-09-29T12:25:33.204Z,12.43
2022-09-29T12:26:33.411Z,12.45
2022-09-29T12:27:33.561Z,12.36
2022-09-29T12:28:33.772Z,12.43
2022-09-29T12:29:33.951Z,12.37
2022-09-29T12:30:34.176Z,12.32
2022-09-29T12:31:34.354Z,12.31
2022-09-29T12:32:34.557Z,12.40
2022-09-29T12:33:34.742Z,12.40
2022-09-29T12:34:34.922Z,12.47
2022-09-29T12:35:35.143Z,12.45
2022-09-29T12:36:35.315Z,12.35
2022-09-29T12:37:35.496Z,12.31
2022-09-29T12:38:35.691Z,12.39
2022-09-29T12:39:35.890Z,12.43
2022-09-29T12:40:36.109Z,12.50
2022-09-29T12:41:36.312Z,12.55
2022-09-29T12:42:36.470Z,12.42
2022-09-29T12:43:36.654Z,12.37
2022-09-29T12:44:36.844Z,12.35
2022-09-29T12:45:37.030Z,12.35
2022-09-29T12:46:37.244Z,12.31
2022-09-29T12:47:37.405Z,12.27
2022-09-29T12:48:37.611Z,12.20
2022-09-29T12:49:37.789Z,12.18
2022-09-29T12:50:37.985Z,12.12
2022-09-29T12:51:38.178Z,12.18
2022-09-29T12:52:38.427Z,12.12
2022-09-29T12:53:38.548Z,12.15
2022-09-29T12:54:38.736Z,12.17
2022-09-29T12:55:38.951Z,12.22
2022-09-29T12:56:39.151Z,12.21
2022-09-29T12:57:39.287Z,12.22
2022-09-29T12:58:39.489Z,12.29
2022-09-29T12:59:39.683Z,12.35
2022-09-29T13:00:39.905Z,12.42
2022-09-29T13:01:40.129Z,12.40
2022-09-29T13:02:40.340Z,12.39
2022-09-29T13:03:40.459Z,12.40
2022-09-29T13:04:40.650Z,12.40
2022-09-29T13:05:40.882Z,12.42
2022-09-29T13:06:41.052Z,12.42
2022-09-29T13:07:41.255Z,12.39
2022-09-29T13:08:41.479Z,12.47
2022-09-29T13:09:41.693Z,12.45
2022-09-29T13:10:41.815Z,12.47
2022-09-29T13:11:42.016Z,12.61
2022-09-29T13:12:42.223Z,12.76
2022-09-29T13:13:42.391Z,12.70
2022-09-29T13:14:42.575Z,12.47